createdAt,value
2023-02-12T00:00:52.211Z,94.18
2023-02-12T00:03:19.035Z,94.36
2023-02-12T00:05:46.057Z,93.98
2023-02-12T00:08:14.430Z,93.75
2023-02-12T00:10:43.266Z,93.91
2023-02-12T00:13:14.038Z,93.69
2023-02-12T00:15:42.510Z,94.34
2023-02-12T00:18:09.339Z,94.22
2023-02-12T00:20:39.328Z,94.12
2023-02-12T00:23:06.734Z,93.70
2023-02-12T00:25:37.969Z,94.43
2023-02-12T00:28:04.675Z,95.04
2023-02-12T00:30:31.420Z,95.65
2023-02-12T00:32:58.131Z,95.63
2023-02-12T00:35:25.061Z,95.79
2023-02-12T00:37:52.270Z,96.05
2023-02-12T00:40:22.700Z,95.42
2023-02-12T00:42:52.776Z,95.09
2023-02-12T00:45:20.266Z,96.35
2023-02-12T00:47:47.068Z,96.92
2023-02-12T00:50:13.812Z,97.09
2023-02-12T00:52:40.674Z,97.13
2023-02-12T00:55:07.618Z,97.35
2023-02-12T00:57:34.285Z,97.17
2023-02-12T01:00:01.247Z,96.58
2023-02-12T01:02:31.101Z,96.66
2023-02-12T01:04:58.879Z,96.90
2023-02-12T01:07:25.804Z,96.95
2023-02-12T01:09:52.931Z,96.91
2023-02-12T01:12:25.857Z,96.67
2023-02-12T01:14:52.761Z,95.97
2023-02-12T01:17:19.444Z,96.84
2023-02-12T01:19:46.135Z,97.19
2023-02-12T01:22:13.091Z,97.41
2023-02-12T01:24:39.995Z,97.01
2023-02-12T01:27:06.747Z,97.33
2023-02-12T01:29:33.681Z,97.21
2023-02-12T01:32:03.944Z,97.67
2023-02-12T01:34:30.692Z,97.86
2023-02-12T01:36:58.329Z,97.56
2023-02-12T01:39:25.020Z,97.34
2023-02-12T01:41:51.715Z,97.07
2023-02-12T01:44:24.143Z,96.71
2023-02-12T01:46:57.175Z,96.75
2023-02-12T01:49:34.020Z,96.67
2023-02-12T01:52:29.769Z,96.65
2023-02-12T01:55:00.528Z,96.76
2023-02-12T01:57:31.414Z,96.46
2023-02-12T02:00:00.878Z,96.01
2023-02-12T02:02:28.868Z,96.58
2023-02-12T02:04:57.383Z,96.17
2023-02-12T02:07:24.414Z,97.55
2023-02-12T02:09:52.134Z,97.82
2023-02-12T02:12:37.369Z,97.88
2023-02-12T02:15:06.229Z,97.78
2023-02-12T02:17:35.874Z,97.44
2023-02-12T02:20:21.454Z,98.95
2023-02-12T02:28:43.610Z,98.74
2023-02-12T02:31:40.603Z,99.62
2023-02-12T02:34:36.727Z,100.00
2023-02-12T02:37:40.743Z,100.00
2023-02-12T02:40:18.400Z,100.00
2023-02-12T02:42:56.998Z,100.00
2023-02-12T02:45:49.851Z,100.00
2023-02-12T02:48:18.520Z,100.00
2023-02-12T02:50:52.860Z,100.00
2023-02-12T02:53:35.377Z,100.00
2023-02-12T02:56:06.400Z,100.00
2023-02-12T02:58:39.422Z,100.00
2023-02-12T03:01:18.235Z,100.00
2023-02-12T03:03:57.332Z,100.00
2023-02-12T03:06:57.419Z,100.00
2023-02-12T03:09:30.614Z,100.00
2023-02-12T03:12:03.879Z,100.00
2023-02-12T03:14:36.066Z,100.00
2023-02-12T03:17:08.330Z,100.00
2023-02-12T03:19:51.051Z,100.00
2023-02-12T03:22:31.602Z,100.00
2023-02-12T03:25:15.213Z,100.00
2023-02-12T03:27:49.290Z,100.00
2023-02-12T03:30:16.589Z,100.00
2023-02-12T03:32:57.045Z,100.00
2023-02-12T03:35:45.359Z,100.00
2023-02-12T03:38:37.745Z,100.00
2023-02-12T03:41:15.727Z,100.00
2023-02-12T03:43:57.361Z,100.00
2023-02-12T03:49:30.020Z,100.00
2023-02-12T03:51:58.511Z,100.00
2023-02-12T03:54:25.516Z,100.00
2023-02-12T03:56:56.190Z,100.00
2023-02-12T03:59:24.886Z,100.00
2023-02-12T04:01:54.324Z,100.00
2023-02-12T04:04:21.739Z,100.00
2023-02-12T04:06:50.609Z,100.00
2023-02-12T04:09:23.062Z,100.00
2023-02-12T04:11:57.052Z,100.00
2023-02-12T04:14:26.832Z,100.00
2023-02-12T04:16:56.125Z,100.00
2023-02-12T04:19:44.640Z,100.00
2023-02-12T04:22:23.477Z,100.00
2023-02-12T04:24:57.117Z,100.00
2023-02-12T04:27:54.153Z,100.00
2023-02-12T04:30:38.008Z,100.00
2023-02-12T04:33:11.129Z,100.00
2023-02-12T04:35:54.790Z,100.00
2023-02-12T04:38:32.295Z,100.00
2023-02-12T04:40:59.497Z,100.00
2023-02-12T04:43:31.147Z,100.00
2023-02-12T04:45:58.382Z,100.00
2023-02-12T04:48:25.742Z,100.00
2023-02-12T04:50:52.789Z,100.00
2023-02-12T04:53:23.069Z,100.00
2023-02-12T04:55:50.858Z,100.00
2023-02-12T04:58:18.536Z,100.00
2023-02-12T05:00:45.337Z,100.00
2023-02-12T05:03:12.019Z,100.00
2023-02-12T05:05:38.716Z,100.00
2023-02-12T05:08:05.628Z,100.00
2023-02-12T05:10:32.315Z,100.00
2023-02-12T05:12:59.193Z,100.00
2023-02-12T05:15:27.115Z,100.00
2023-02-12T05:17:54.807Z,100.00
2023-02-12T05:20:21.504Z,100.00
2023-02-12T05:22:52.457Z,100.00
2023-02-12T05:25:19.200Z,100.00
2023-02-12T05:27:46.009Z,100.00
2023-02-12T05:30:13.052Z,100.00
2023-02-12T05:32:39.851Z,100.00
2023-02-12T05:35:07.337Z,100.00
2023-02-12T05:37:37.444Z,100.00
2023-02-12T05:40:05.857Z,100.00
2023-02-12T05:42:32.841Z,100.00
2023-02-12T05:45:00.056Z,100.00
2023-02-12T05:47:26.798Z,100.00
2023-02-12T05:49:54.670Z,100.00
2023-02-12T05:52:21.589Z,100.00
2023-02-12T05:54:50.403Z,100.00
2023-02-12T05:57:17.369Z,100.00
2023-02-12T05:59:44.163Z,100.00
2023-02-12T06:02:10.952Z,100.00
2023-02-12T06:04:37.818Z,100.00
2023-02-12T06:07:04.707Z,100.00
2023-02-12T06:09:32.058Z,100.00
2023-02-12T06:11:58.824Z,100.00
2023-02-12T06:14:25.819Z,100.00
2023-02-12T06:16:53.024Z,100.00
2023-02-12T06:19:20.495Z,100.00
2023-02-12T06:21:51.513Z,100.00
2023-02-12T06:24:18.411Z,100.00
2023-02-12T06:26:45.980Z,100.00
2023-02-12T06:29:13.676Z,100.00
2023-02-12T06:31:41.123Z,100.00
2023-02-12T06:34:10.657Z,100.00
2023-02-12T06:36:42.032Z,100.00
2023-02-12T06:39:10.154Z,100.00
2023-02-12T06:41:37.195Z,100.00
2023-02-12T06:44:05.188Z,100.00
2023-02-12T06:46:31.997Z,100.00
2023-02-12T06:49:00.678Z,100.00
2023-02-12T06:51:29.147Z,100.00
2023-02-12T06:53:57.395Z,100.00
2023-02-12T06:56:25.779Z,100.00
2023-02-12T07:01:25.158Z,100.00
2023-02-12T07:03:57.212Z,100.00
2023-02-12T07:06:26.109Z,100.00
2023-02-12T07:08:52.972Z,100.00
2023-02-12T07:11:24.322Z,100.00
2023-02-12T07:13:51.240Z,100.00
2023-02-12T07:16:19.498Z,100.00
2023-02-12T07:18:47.069Z,100.00
2023-02-12T07:21:15.778Z,100.00
2023-02-12T07:23:50.394Z,100.00
2023-02-12T07:26:17.894Z,100.00
2023-02-12T07:28:44.927Z,100.00
2023-02-12T07:31:23.571Z,99.40
2023-02-12T07:36:22.561Z,99.56
2023-02-12T07:38:49.669Z,99.39
2023-02-12T07:41:25.857Z,98.96
2023-02-12T07:43:57.223Z,98.19
2023-02-12T07:46:32.125Z,97.88
2023-02-12T07:49:01.693Z,97.60
2023-02-12T07:51:33.233Z,98.17
2023-02-12T07:54:01.673Z,100.00
2023-02-12T07:56:33.139Z,98.60
2023-02-12T07:59:05.897Z,99.07
2023-02-12T08:01:41.826Z,98.43
2023-02-12T08:04:13.667Z,98.21
2023-02-12T08:06:46.680Z,96.93
2023-02-12T08:09:16.359Z,95.58
2023-02-12T08:11:44.148Z,97.25
2023-02-12T08:14:16.029Z,97.14
2023-02-12T08:16:44.285Z,96.03
2023-02-12T08:19:19.501Z,95.74
2023-02-12T08:24:24.359Z,95.59
2023-02-12T08:26:51.564Z,95.56
2023-02-12T08:29:22.053Z,95.48
2023-02-12T08:31:50.914Z,97.78
2023-02-12T08:34:20.445Z,96.66
2023-02-12T08:36:49.127Z,96.32
2023-02-12T08:39:16.820Z,97.64
2023-02-12T08:41:44.843Z,96.76
2023-02-12T08:44:12.729Z,95.18
2023-02-12T08:46:48.009Z,94.60
2023-02-12T08:49:17.845Z,94.22
2023-02-12T08:51:48.832Z,93.97
2023-02-12T08:54:27.043Z,94.00
2023-02-12T08:56:57.280Z,94.82
2023-02-12T08:59:24.632Z,93.66
2023-02-12T09:01:53.187Z,94.54
2023-02-12T09:04:23.022Z,93.69
2023-02-12T09:06:52.282Z,93.90
2023-02-12T09:09:19.982Z,95.13
2023-02-12T09:11:47.355Z,94.74
2023-02-12T09:14:17.131Z,94.06
2023-02-12T09:16:44.199Z,97.98
2023-02-12T09:19:13.835Z,95.65
2023-02-12T09:21:41.273Z,94.81
2023-02-12T09:24:08.606Z,94.28
2023-02-12T09:26:35.740Z,94.40
2023-02-12T09:29:05.429Z,93.58
2023-02-12T09:31:33.489Z,93.11
2023-02-12T09:34:04.453Z,94.24
2023-02-12T09:36:31.831Z,92.32
2023-02-12T09:38:59.595Z,93.56
2023-02-12T09:41:57.252Z,95.71
2023-02-12T09:44:54.927Z,92.07
2023-02-12T09:47:26.347Z,92.36
2023-02-12T09:49:57.563Z,91.84
2023-02-12T09:52:27.948Z,90.54
2023-02-12T09:54:57.810Z,90.05
2023-02-12T09:57:29.628Z,88.58
2023-02-12T09:59:57.278Z,89.25
2023-02-12T10:02:27.920Z,89.74
2023-02-12T10:07:43.401Z,86.22
2023-02-12T10:10:15.967Z,89.20
2023-02-12T10:12:56.316Z,85.70
2023-02-12T10:15:31.735Z,88.90
2023-02-12T10:18:26.173Z,87.02
2023-02-12T10:23:41.108Z,83.42
2023-02-12T10:26:22.342Z,83.69
2023-02-12T10:28:50.191Z,83.71
2023-02-12T10:31:30.256Z,80.87
2023-02-12T10:33:57.329Z,80.07
2023-02-12T10:36:35.867Z,80.42
2023-02-12T10:39:26.616Z,79.50
2023-02-12T10:41:56.387Z,80.95
2023-02-12T10:44:26.000Z,82.06
2023-02-12T10:46:52.970Z,81.59
2023-02-12T10:49:21.965Z,82.44
2023-02-12T10:51:57.410Z,81.57
2023-02-12T10:54:45.141Z,79.89
2023-02-12T10:57:17.947Z,78.48
2023-02-12T10:59:46.889Z,77.17
2023-02-12T11:02:30.613Z,74.94
2023-02-12T11:04:59.821Z,73.61
2023-02-12T11:07:28.043Z,73.03
2023-02-12T11:09:57.467Z,72.71
2023-02-12T11:12:41.605Z,71.79
2023-02-12T11:15:16.547Z,75.70
2023-02-12T11:17:46.400Z,73.96
2023-02-12T11:20:18.840Z,76.19
2023-02-12T11:22:54.865Z,73.69
2023-02-12T11:25:23.226Z,74.11
2023-02-12T11:27:57.473Z,75.09
2023-02-12T11:30:24.818Z,74.50
2023-02-12T11:32:52.610Z,73.15
2023-02-12T11:35:25.913Z,77.82
2023-02-12T11:37:56.372Z,74.01
2023-02-12T11:40:27.874Z,73.22
2023-02-12T11:42:56.422Z,73.54
2023-02-12T11:45:32.059Z,71.53
2023-02-12T11:47:59.654Z,70.04
2023-02-12T11:50:34.677Z,71.96
2023-02-12T11:53:10.023Z,72.37
2023-02-12T11:55:40.228Z,70.34
2023-02-12T11:58:15.320Z,70.10
2023-02-12T12:03:41.771Z,62.45
2023-02-12T12:06:26.918Z,63.88
2023-02-12T12:08:57.447Z,65.30
2023-02-12T12:11:31.686Z,58.44
2023-02-12T12:13:58.614Z,54.20
2023-02-12T12:19:53.284Z,45.94
2023-02-12T12:22:29.643Z,51.34
2023-02-12T12:24:57.446Z,59.39
2023-02-12T12:27:57.913Z,58.78
2023-02-12T12:30:29.310Z,61.98
2023-02-12T12:32:56.435Z,62.31
2023-02-12T12:35:37.154Z,63.38
2023-02-12T12:38:21.310Z,73.63
2023-02-12T12:40:57.433Z,72.36
2023-02-12T12:43:33.274Z,69.87
2023-02-12T12:46:28.572Z,70.45
2023-02-12T12:48:56.375Z,71.20
2023-02-12T12:51:57.353Z,70.12
2023-02-12T12:54:36.450Z,70.06
2023-02-12T12:57:35.156Z,70.99
2023-02-12T13:00:25.433Z,72.43
2023-02-12T13:02:57.493Z,72.42
2023-02-12T13:08:43.915Z,75.48
2023-02-12T13:11:20.541Z,75.47
2023-02-12T13:13:51.939Z,76.07
2023-02-12T13:16:40.321Z,76.08
2023-02-12T13:19:20.968Z,77.81
2023-02-12T13:21:57.491Z,77.59
2023-02-12T13:24:37.769Z,77.25
2023-02-12T13:27:42.918Z,77.09
2023-02-12T13:30:24.355Z,78.05
2023-02-12T13:32:57.599Z,78.85
2023-02-12T13:35:26.450Z,79.70
2023-02-12T13:37:54.711Z,80.24
2023-02-12T13:40:29.294Z,79.55
2023-02-12T13:42:57.454Z,80.71
2023-02-12T13:45:52.020Z,80.75
2023-02-12T13:48:40.639Z,81.34
2023-02-12T13:51:50.634Z,80.86
2023-02-12T13:54:50.052Z,80.26
2023-02-12T13:57:19.871Z,80.75
2023-02-12T13:59:49.524Z,81.95
2023-02-12T14:02:49.578Z,81.10
2023-02-12T14:05:29.606Z,80.28
2023-02-12T14:07:57.601Z,79.56
2023-02-12T14:10:41.103Z,80.39
2023-02-12T14:13:34.388Z,80.49
2023-02-12T14:16:38.935Z,79.57
2023-02-12T14:19:36.694Z,79.59
2023-02-12T14:22:14.752Z,80.06
2023-02-12T14:27:34.774Z,80.64
2023-02-12T14:30:10.586Z,79.80
2023-02-12T14:32:57.650Z,80.09
2023-02-12T14:35:30.799Z,79.90
2023-02-12T14:37:58.843Z,79.52
2023-02-12T14:40:47.280Z,79.79
2023-02-12T14:43:29.278Z,79.87
2023-02-12T14:45:57.849Z,79.69
2023-02-12T14:48:53.410Z,79.88
2023-02-12T14:51:29.295Z,79.90
2023-02-12T14:56:23.916Z,80.49
2023-02-12T14:58:55.033Z,81.58
2023-02-12T15:01:36.598Z,82.02
2023-02-12T15:04:13.384Z,81.54
2023-02-12T15:06:49.415Z,81.90
2023-02-12T15:09:42.947Z,81.76
2023-02-12T15:12:22.550Z,81.40
2023-02-12T15:14:57.582Z,82.14
2023-02-12T15:17:33.653Z,82.34
2023-02-12T15:20:19.905Z,82.24
2023-02-12T15:22:47.405Z,82.30
2023-02-12T15:25:24.658Z,82.54
2023-02-12T15:27:57.543Z,83.61
2023-02-12T15:30:30.716Z,83.44
2023-02-12T15:33:00.837Z,84.04
2023-02-12T15:35:33.834Z,84.52
2023-02-12T15:38:02.101Z,84.60
2023-02-12T15:40:30.702Z,85.29
2023-02-12T15:43:00.663Z,85.35
2023-02-12T15:45:32.605Z,85.06
2023-02-12T15:48:02.195Z,84.87
2023-02-12T15:50:31.191Z,85.42
2023-02-12T15:53:01.919Z,85.27
2023-02-12T15:55:34.874Z,85.02
2023-02-12T15:58:02.207Z,84.87
2023-02-12T16:00:44.726Z,85.45
2023-02-12T16:03:32.045Z,85.60
2023-02-12T16:06:13.959Z,85.77
2023-02-12T16:08:44.090Z,85.70
2023-02-12T16:11:16.132Z,85.35
2023-02-12T16:13:50.194Z,85.59
2023-02-12T16:16:22.051Z,85.43
2023-02-12T16:18:57.489Z,85.59
2023-02-12T16:21:24.493Z,85.60
2023-02-12T16:23:53.937Z,85.59
2023-02-12T16:26:25.061Z,86.10
2023-02-12T16:28:57.959Z,86.20
2023-02-12T16:31:28.148Z,86.37
2023-02-12T16:33:59.490Z,86.65
2023-02-12T16:36:26.452Z,86.78
2023-02-12T16:41:38.594Z,86.56
2023-02-12T16:44:05.262Z,87.02
2023-02-12T16:46:34.897Z,87.20
2023-02-12T16:49:02.749Z,86.86
2023-02-12T16:51:33.423Z,87.21
2023-02-12T16:54:02.794Z,87.24
2023-02-12T16:56:34.334Z,87.25
2023-02-12T16:59:05.763Z,87.24
2023-02-12T17:01:35.548Z,87.53
2023-02-12T17:04:09.329Z,87.50
2023-02-12T17:06:35.998Z,87.77
2023-02-12T17:09:02.765Z,88.06
2023-02-12T17:11:30.403Z,88.06
2023-02-12T17:13:57.626Z,88.19
2023-02-12T17:16:31.179Z,88.40
2023-02-12T17:18:59.468Z,88.83
2023-02-12T17:21:32.702Z,88.81
2023-02-12T17:24:00.128Z,89.14
2023-02-12T17:26:27.446Z,88.88
2023-02-12T17:31:22.183Z,89.21
2023-02-12T17:33:48.961Z,89.76
2023-02-12T17:36:16.839Z,89.85
2023-02-12T17:38:43.751Z,89.76
2023-02-12T17:41:11.422Z,89.90
2023-02-12T17:43:38.629Z,89.93
2023-02-12T17:46:13.266Z,89.89
2023-02-12T17:48:40.905Z,89.79
2023-02-12T17:51:10.250Z,89.57
2023-02-12T17:53:37.638Z,89.71
2023-02-12T17:56:05.797Z,89.72
2023-02-12T17:58:32.806Z,89.97
2023-02-12T18:01:05.706Z,90.08
2023-02-12T18:03:32.654Z,89.80
2023-02-12T18:05:59.661Z,89.30
2023-02-12T18:08:26.569Z,90.15
2023-02-12T18:13:43.979Z,89.82
2023-02-12T18:16:14.189Z,89.53
2023-02-12T18:18:41.277Z,89.60
2023-02-12T18:21:16.210Z,90.44
2023-02-12T18:23:47.184Z,90.17
2023-02-12T18:26:16.953Z,90.62
2023-02-12T18:28:44.115Z,90.44
2023-02-12T18:31:11.702Z,90.73
2023-02-12T18:33:42.544Z,90.93
2023-02-12T18:36:21.478Z,91.23
2023-02-12T18:38:50.799Z,90.92
2023-02-12T18:41:20.908Z,90.96
2023-02-12T18:43:48.086Z,91.21
2023-02-12T18:46:21.364Z,91.49
2023-02-12T18:48:48.555Z,91.90
2023-02-12T18:51:19.044Z,91.99
2023-02-12T18:53:48.865Z,92.31
2023-02-12T18:56:19.087Z,91.96
2023-02-12T18:58:46.378Z,92.13
2023-02-12T19:01:15.958Z,91.97
2023-02-12T19:03:45.133Z,93.12
2023-02-12T19:06:12.401Z,92.96
2023-02-12T19:08:39.656Z,93.23
2023-02-12T19:11:07.926Z,93.36
2023-02-12T19:13:35.298Z,93.63
2023-02-12T19:16:14.896Z,93.16
2023-02-12T19:18:42.080Z,93.42
2023-02-12T19:21:12.200Z,93.18
2023-02-12T19:23:43.128Z,93.82
2023-02-12T19:26:23.933Z,94.07
2023-02-12T19:28:51.649Z,94.37
2023-02-12T19:31:24.139Z,94.13
2023-02-12T19:33:59.394Z,94.31
2023-02-12T19:36:28.686Z,94.69
2023-02-12T19:41:24.917Z,95.62
2023-02-12T19:44:00.576Z,95.64
2023-02-12T19:46:29.876Z,96.11
2023-02-12T19:48:58.567Z,96.87
2023-02-12T19:51:26.647Z,97.25
2023-02-12T19:53:54.268Z,98.22
2023-02-12T19:56:21.047Z,98.03
2023-02-12T19:58:47.967Z,98.50
2023-02-12T20:01:18.425Z,99.15
2023-02-12T20:03:49.252Z,99.06
2023-02-12T20:06:22.162Z,100.00
2023-02-12T20:08:52.024Z,99.75
2023-02-12T20:11:25.059Z,100.00
2023-02-12T20:13:52.193Z,100.00
2023-02-12T20:16:22.328Z,100.00
2023-02-12T20:18:52.127Z,100.00
2023-02-12T20:21:25.630Z,100.00
2023-02-12T20:23:53.485Z,99.86
2023-02-12T20:26:20.942Z,99.46
2023-02-12T20:28:49.624Z,99.57
2023-02-12T20:31:26.934Z,99.41
2023-02-12T20:33:57.651Z,99.20
2023-02-12T20:36:25.924Z,99.25
2023-02-12T20:41:24.310Z,99.42
2023-02-12T20:43:51.365Z,99.09
2023-02-12T20:46:23.804Z,99.07
2023-02-12T20:48:50.611Z,99.42
2023-02-12T20:51:23.537Z,100.00
2023-02-12T20:53:51.779Z,100.00
2023-02-12T20:56:20.798Z,100.00
2023-02-12T20:58:48.523Z,100.00
2023-02-12T21:01:25.564Z,100.00
2023-02-12T21:06:24.763Z,100.00
2023-02-12T21:08:52.190Z,100.00
2023-02-12T21:11:22.343Z,100.00
2023-02-12T21:14:02.313Z,100.00
2023-02-12T21:16:28.215Z,100.00
2023-02-12T21:21:29.345Z,100.00
2023-02-12T21:23:57.072Z,100.00
2023-02-12T21:26:35.752Z,100.00
2023-02-12T21:29:06.939Z,100.00
2023-02-12T21:31:42.215Z,100.00
2023-02-12T21:34:13.900Z,100.00
2023-02-12T21:36:45.315Z,100.00
2023-02-12T21:39:25.117Z,100.00
2023-02-12T21:41:55.209Z,100.00
2023-02-12T21:44:24.174Z,100.00
2023-02-12T21:49:30.110Z,100.00
2023-02-12T21:52:02.406Z,100.00
2023-02-12T21:54:30.867Z,100.00
2023-02-12T21:56:59.604Z,100.00
2023-02-12T21:59:26.913Z,100.00
2023-02-12T22:04:22.441Z,100.00
2023-02-12T22:06:51.645Z,100.00
2023-02-12T22:09:21.862Z,100.00
2023-02-12T22:11:49.031Z,100.00
2023-02-12T22:14:17.816Z,100.00
2023-02-12T22:16:45.167Z,100.00
2023-02-12T22:19:12.106Z,100.00
2023-02-12T22:21:40.722Z,100.00
2023-02-12T22:24:09.718Z,100.00
2023-02-12T22:26:36.779Z,100.00
2023-02-12T22:29:07.610Z,100.00
2023-02-12T22:31:40.946Z,100.00
2023-02-12T22:34:14.188Z,100.00
2023-02-12T22:36:42.661Z,100.00
2023-02-12T22:39:11.496Z,100.00
2023-02-12T22:41:39.224Z,100.00
2023-02-12T22:44:10.066Z,100.00
2023-02-12T22:46:36.913Z,100.00
2023-02-12T22:49:04.648Z,100.00
2023-02-12T22:51:33.641Z,100.00
2023-02-12T22:54:00.706Z,100.00
2023-02-12T22:56:27.585Z,100.00
2023-02-12T22:58:57.902Z,100.00
2023-02-12T23:01:26.052Z,100.00
2023-02-12T23:03:53.885Z,100.00
2023-02-12T23:06:23.851Z,100.00
2023-02-12T23:08:52.999Z,100.00
2023-02-12T23:11:20.752Z,100.00
2023-02-12T23:13:47.917Z,100.00
2023-02-12T23:16:14.975Z,100.00
2023-02-12T23:18:42.088Z,100.00
2023-02-12T23:21:09.292Z,100.00
2023-02-12T23:23:36.112Z,100.00
2023-02-12T23:26:06.924Z,100.00
2023-02-12T23:28:33.975Z,100.00
2023-02-12T23:31:02.617Z,100.00
2023-02-12T23:33:32.685Z,100.00
2023-02-12T23:36:02.169Z,100.00
2023-02-12T23:38:28.957Z,100.00
2023-02-12T23:43:32.931Z,100.00
2023-02-12T23:46:00.453Z,100.00
2023-02-12T23:48:29.007Z,100.00
2023-02-12T23:53:25.260Z,100.00
2023-02-12T23:55:52.571Z,100.00
2023-02-12T23:58:19.845Z,100.00
